Terminal Aerodrome Forecast
Issued by NWS

Current Version | Previous Version | Graphics & Text | Print | Product List | Glossary On
Versions: 1 2 3 4 5 6 7 8 9 10 11 12 13 14 15 16 17 18 19 20
000
FTUS41 KRLX 282335
TAFCKB
TAF
KCKB 282335Z 2900/2924 28007KT P6SM BKN060
     FM290200 25004KT 6SM BR SCT060
     FM290500 00000KT 5SM BR FEW070
     FM290800 00000KT 1/2SM FG VV001
     FM291100 VRB03KT 1SM BR BKN002
     FM291200 19004KT 3SM BR SCT005 SCT150
     FM291300 19004KT P6SM SCT140
     FM292000 21005KT P6SM BKN080=

USA.gov is the U.S. government's official web portal to all federal, state and local government web resources and services.